Time;durP1;ratioP1;P1;durP2;ratioP2;P2;SDS_P1;SDS_P2;PMS_P1;PMS_P2;Temp;Humidity;BMP_temperature;BMP_pressure;BME280_temperature;BME280_humidity;BME280_pressure;Samples;Min_cycle;Max_cycle;Signal;HPM_P1;HPM_P2
2023/11/17 00:00:31;;;;;;;1999.90;999.90;;;7.10;99.90;;;;;;4993250;28;20844;-73
2023/11/17 00:02:56;;;;;;;1999.90;999.90;;;7.10;99.90;;;;;;4993820;28;20415;-73
2023/11/17 00:05:22;;;;;;;1999.90;999.90;;;7.00;99.90;;;;;;4993476;28;20941;-73
2023/11/17 00:07:48;;;;;;;1999.90;999.90;;;7.10;99.90;;;;;;4993676;28;20706;-73
2023/11/17 00:10:13;;;;;;;1999.90;999.90;;;7.00;99.90;;;;;;4993431;28;20271;-73
2023/11/17 00:12:41;;;;;;;1999.90;999.90;;;7.40;99.90;;;;;;4993285;28;20174;-73
2023/11/17 00:15:07;;;;;;;1999.90;999.90;;;7.30;99.90;;;;;;4992903;28;20639;-72
2023/11/17 00:17:33;;;;;;;1999.90;999.90;;;7.10;99.90;;;;;;4993262;28;20413;-72
2023/11/17 00:19:59;;;;;;;1999.90;999.90;;;7.00;99.90;;;;;;4993654;28;20940;-72
2023/11/17 00:22:24;;;;;;;1999.90;999.90;;;7.00;99.90;;;;;;4993577;28;20697;-73
2023/11/17 00:24:50;;;;;;;1999.90;999.90;;;6.90;99.90;;;;;;4993496;28;20213;-73
2023/11/17 00:27:16;;;;;;;1999.90;999.90;;;7.40;99.90;;;;;;4993221;28;20531;-73
2023/11/17 00:29:43;;;;;;;1999.90;999.90;;;6.80;99.90;;;;;;4993563;28;20206;-73
2023/11/17 00:32:09;;;;;;;1999.90;999.90;;;6.90;99.90;;;;;;4993352;28;20825;-73
2023/11/17 00:34:34;;;;;;;1999.90;999.90;;;6.90;99.90;;;;;;4993193;28;20432;-73
2023/11/17 00:37:04;;;;;;;1999.90;999.90;;;6.80;99.90;;;;;;4993702;28;20762;-73
2023/11/17 00:39:30;;;;;;;1999.90;999.90;;;6.80;99.90;;;;;;4993164;28;20197;-73
2023/11/17 00:41:58;;;;;;;1999.90;999.90;;;6.90;99.90;;;;;;4993026;28;20447;-73
2023/11/17 00:44:23;;;;;;;1999.90;999.90;;;7.00;99.90;;;;;;4993143;28;20207;-73
2023/11/17 00:46:49;;;;;;;1999.90;999.90;;;6.90;99.90;;;;;;4993493;28;20404;-72
2023/11/17 00:49:15;;;;;;;1999.90;999.90;;;6.90;99.90;;;;;;4993188;28;20210;-73
2023/11/17 00:51:41;;;;;;;1999.90;999.90;;;6.90;99.90;;;;;;4993130;28;20649;-73
2023/11/17 00:54:07;;;;;;;1999.90;999.90;;;6.90;99.90;;;;;;4992785;28;20665;-73
2023/11/17 00:56:33;;;;;;;1999.90;999.90;;;7.10;99.90;;;;;;4992996;28;20420;-73
2023/11/17 00:59:00;;;;;;;1999.90;999.90;;;7.00;99.90;;;;;;4992787;28;20578;-73
2023/11/17 01:01:26;;;;;;;1999.90;999.90;;;7.00;99.90;;;;;;4995057;28;20413;-73
2023/11/17 01:03:52;;;;;;;1999.90;999.90;;;7.00;99.90;;;;;;4996723;28;20932;-74
2023/11/17 01:06:18;;;;;;;1999.90;999.90;;;7.00;99.90;;;;;;4996364;28;20436;-74
2023/11/17 01:08:43;;;;;;;1999.90;999.90;;;6.90;99.90;;;;;;4996547;28;20240;-73
2023/11/17 01:11:12;;;;;;;1999.90;999.90;;;6.90;99.90;;;;;;4999407;28;20170;-74
2023/11/17 01:13:41;;;;;;;1999.90;999.90;;;7.00;99.90;;;;;;5000572;28;20186;-74
2023/11/17 01:16:07;;;;;;;1999.90;999.90;;;6.90;99.90;;;;;;5000951;28;20496;-74
2023/11/17 01:18:33;;;;;;;1999.90;999.90;;;6.90;99.90;;;;;;5001433;28;20826;-73
2023/11/17 01:20:58;;;;;;;1999.90;999.90;;;6.80;99.90;;;;;;5000721;28;20194;-73
2023/11/17 01:23:25;;;;;;;1999.90;999.90;;;6.30;99.90;;;;;;5000902;28;20676;-73
2023/11/17 01:25:50;;;;;;;1999.90;999.90;;;6.60;99.90;;;;;;4999973;28;20168;-73
2023/11/17 01:28:17;;;;;;;1999.90;999.90;;;6.60;99.90;;;;;;5000301;28;20440;-73
2023/11/17 01:30:42;;;;;;;1999.90;999.90;;;6.50;99.90;;;;;;5000755;28;20161;-74
2023/11/17 01:33:09;;;;;;;1999.90;999.90;;;6.50;99.90;;;;;;4999805;28;20497;-73
2023/11/17 01:35:35;;;;;;;1999.90;999.90;;;6.50;99.90;;;;;;4999482;28;20181;-74
2023/11/17 01:38:01;;;;;;;1999.90;999.90;;;6.40;99.90;;;;;;5000956;28;20433;-73
2023/11/17 01:40:27;;;;;;;1999.90;999.90;;;6.40;99.90;;;;;;5000810;28;20182;-73
2023/11/17 01:42:53;;;;;;;1999.90;999.90;;;6.40;99.90;;;;;;5000738;28;20492;-73
2023/11/17 01:45:21;;;;;;;1999.90;999.90;;;6.40;99.90;;;;;;4999811;28;20522;-74
2023/11/17 01:47:47;;;;;;;1999.90;999.90;;;6.30;99.90;;;;;;4999790;28;20178;-74
2023/11/17 01:50:14;;;;;;;1999.90;999.90;;;6.30;99.90;;;;;;5000148;28;20449;-74
2023/11/17 01:52:42;;;;;;;1999.90;999.90;;;6.20;99.90;;;;;;4999164;28;20432;-74
2023/11/17 01:55:09;;;;;;;1999.90;999.90;;;6.20;99.90;;;;;;4999439;28;20460;-74
2023/11/17 01:57:37;;;;;;;1999.90;999.90;;;6.20;99.90;;;;;;4999860;28;20409;-74
2023/11/17 02:00:06;;;;;;;1999.90;999.90;;;6.20;99.90;;;;;;4998636;28;20453;-73
2023/11/17 02:02:33;;;;;;;1999.90;999.90;;;6.10;99.90;;;;;;4998149;28;20413;-73
2023/11/17 02:04:59;;;;;;;1999.90;999.90;;;6.10;99.90;;;;;;4997997;28;20794;-73
2023/11/17 02:07:34;;;;;;;1999.90;999.90;;;6.00;99.90;;;;;;4998866;28;20463;-73
2023/11/17 02:10:00;;;;;;;1999.90;999.90;;;6.10;99.90;;;;;;4998435;28;20542;-73
2023/11/17 02:12:48;;;;;;;1999.90;999.90;;;6.00;99.90;;;;;;4998317;28;20484;-73
2023/11/17 02:15:16;;;;;;;1999.90;999.90;;;5.90;99.90;;;;;;4998790;28;20243;-73
2023/11/17 02:17:44;;;;;;;1999.90;999.90;;;5.90;99.90;;;;;;4998365;28;20405;-73
2023/11/17 02:20:11;;;;;;;1999.90;999.90;;;5.90;99.90;;;;;;4998573;28;20460;-73
2023/11/17 02:22:44;;;;;;;1999.90;999.90;;;5.90;99.90;;;;;;4997401;28;20409;-74
2023/11/17 02:25:28;;;;;;;1999.90;999.90;;;5.80;99.90;;;;;;4998387;28;20431;-73
2023/11/17 02:28:20;;;;;;;1999.90;999.90;;;5.80;99.90;;;;;;4997983;28;20413;-73
2023/11/17 02:30:55;;;;;;;1999.90;999.90;;;5.80;99.90;;;;;;4996991;28;20544;-73
2023/11/17 02:33:24;;;;;;;1999.90;999.90;;;5.70;99.90;;;;;;4979504;28;20492;-73
2023/11/17 02:35:55;;;;;;;1999.90;999.90;;;5.70;99.90;;;;;;4997304;28;20408;-73
2023/11/17 02:38:21;;;;;;;1999.90;999.90;;;5.80;99.90;;;;;;4981740;28;20405;-73
2023/11/17 02:40:46;;;;;;;1999.90;999.90;;;5.80;99.90;;;;;;4997607;28;20760;-73
2023/11/17 02:43:12;;;;;;;1999.90;999.90;;;5.80;99.90;;;;;;4997798;28;20401;-73
2023/11/17 02:45:40;;;;;;;1999.90;999.90;;;5.90;99.90;;;;;;4997242;28;20210;-73
2023/11/17 02:48:06;;;;;;;1999.90;999.90;;;5.90;99.90;;;;;;4997190;28;20232;-73
2023/11/17 02:50:38;;;;;;;1999.90;999.90;;;5.70;99.90;;;;;;4995741;28;20959;-73
2023/11/17 02:53:17;;;;;;;1999.90;999.90;;;5.80;99.90;;;;;;4979246;28;20424;-73
2023/11/17 02:55:44;;;;;;;1999.90;999.90;;;5.90;99.90;;;;;;4997110;28;20918;-73
2023/11/17 02:58:12;;;;;;;1999.90;999.90;;;5.80;99.90;;;;;;4997605;28;20409;-73
2023/11/17 03:00:38;;;;;;;1999.90;999.90;;;5.90;99.90;;;;;;4996830;28;20397;-73
2023/11/17 03:03:04;;;;;;;1999.90;999.90;;;7.10;99.90;;;;;;4996945;28;20400;-73
2023/11/17 03:05:30;;;;;;;1999.90;999.90;;;5.80;99.90;;;;;;4996451;28;20479;-73
2023/11/17 03:07:56;;;;;;;1999.90;999.90;;;5.80;99.90;;;;;;4996927;28;20433;-73
2023/11/17 03:10:22;;;;;;;1999.90;999.90;;;5.80;99.90;;;;;;4996910;28;20207;-73
2023/11/17 03:12:50;;;;;;;1999.90;999.90;;;5.80;99.90;;;;;;4996389;28;20166;-73
2023/11/17 03:15:15;;;;;;;1999.90;999.90;;;5.90;99.90;;;;;;4996198;28;20795;-73
2023/11/17 03:17:41;;;;;;;1999.90;999.90;;;5.90;99.90;;;;;;4996808;28;20440;-73
2023/11/17 03:20:14;;;;;;;1999.90;999.90;;;5.80;99.90;;;;;;4996609;28;20409;-73
2023/11/17 03:22:44;;;;;;;1999.90;999.90;;;5.80;99.90;;;;;;4996555;28;20413;-73
2023/11/17 03:25:19;;;;;;;1999.90;999.90;;;5.70;99.90;;;;;;4996240;28;20429;-73
2023/11/17 03:27:50;;;;;;;1999.90;999.90;;;5.70;99.90;;;;;;4996908;28;20404;-73
2023/11/17 03:30:17;;;;;;;1999.90;999.90;;;5.70;99.90;;;;;;4996895;28;20444;-73
2023/11/17 03:32:47;;;;;;;1999.90;999.90;;;5.70;99.90;;;;;;4997449;28;20471;-73
2023/11/17 03:35:13;;;;;;;1999.90;999.90;;;5.70;99.90;;;;;;4979645;28;20439;-73
2023/11/17 03:37:38;;;;;;;1999.90;999.90;;;5.70;99.90;;;;;;4996578;28;20412;-73
2023/11/17 03:40:15;;;;;;;1999.90;999.90;;;5.80;99.90;;;;;;4979168;28;20416;-73
2023/11/17 03:42:41;;;;;;;1999.90;999.90;;;5.80;99.90;;;;;;4997361;28;20161;-73
2023/11/17 03:45:08;;;;;;;1999.90;999.90;;;5.80;99.90;;;;;;4996808;28;20460;-73
2023/11/17 03:47:37;;;;;;;1999.90;999.90;;;5.80;99.90;;;;;;4996941;28;20417;-73
2023/11/17 03:50:03;;;;;;;1999.90;999.90;;;5.70;99.90;;;;;;4979617;28;20492;-73
2023/11/17 03:52:33;;;;;;;1999.90;999.90;;;5.80;99.90;;;;;;4996493;28;20459;-73
2023/11/17 03:55:02;;;;;;;1999.90;999.90;;;5.80;99.90;;;;;;4979027;28;20935;-73
2023/11/17 03:57:28;;;;;;;1999.90;999.90;;;5.80;99.90;;;;;;4996806;28;20457;-73
2023/11/17 03:59:54;;;;;;;1999.90;999.90;;;6.30;99.90;;;;;;4996804;28;20440;-73
2023/11/17 04:02:22;;;;;;;1999.90;999.90;;;5.90;99.90;;;;;;4997028;28;20469;-73
2023/11/17 04:04:49;;;;;;;1999.90;999.90;;;5.90;99.90;;;;;;4996522;28;20727;-73
2023/11/17 04:07:15;;;;;;;1999.90;999.90;;;5.90;99.90;;;;;;4996615;28;20428;-73
2023/11/17 04:09:40;;;;;;;1999.90;999.90;;;5.80;99.90;;;;;;4996480;28;20522;-73
2023/11/17 04:12:09;;;;;;;1999.90;999.90;;;5.90;99.90;;;;;;4996933;28;20178;-73
2023/11/17 04:14:39;;;;;;;1999.90;999.90;;;5.90;99.90;;;;;;4996663;28;20189;-73
2023/11/17 04:17:06;;;;;;;1999.90;999.90;;;5.90;99.90;;;;;;4980253;28;20439;-73
2023/11/17 04:19:31;;;;;;;1999.90;999.90;;;5.80;99.90;;;;;;4996506;28;20405;-73
2023/11/17 04:21:58;;;;;;;1999.90;999.90;;;5.80;99.90;;;;;;4996861;28;20417;-73
2023/11/17 04:24:23;;;;;;;1999.90;999.90;;;5.80;99.90;;;;;;4996270;28;20190;-73
2023/11/17 04:26:49;;;;;;;1999.90;999.90;;;6.30;99.90;;;;;;4996667;28;20421;-73
2023/11/17 04:29:15;;;;;;;1999.90;999.90;;;5.90;99.90;;;;;;4996342;28;20252;-73
2023/11/17 04:31:42;;;;;;;1999.90;999.90;;;5.90;99.90;;;;;;4996273;28;20409;-73
2023/11/17 04:34:11;;;;;;;1999.90;999.90;;;5.90;99.90;;;;;;4996333;28;20197;-73
2023/11/17 04:36:37;;;;;;;1999.90;999.90;;;6.00;99.90;;;;;;4996051;28;20405;-73
2023/11/17 04:39:11;;;;;;;1999.90;999.90;;;6.00;99.90;;;;;;4993006;28;20413;-73
2023/11/17 04:41:36;;;;;;;1999.90;999.90;;;6.00;99.90;;;;;;4992714;28;20419;-73
2023/11/17 04:44:03;;;;;;;1999.90;999.90;;;6.00;99.90;;;;;;4992313;28;21019;-73
2023/11/17 04:46:29;;;;;;;1999.90;999.90;;;6.00;99.90;;;;;;4996072;28;20232;-72
2023/11/17 04:48:55;;;;;;;1999.90;999.90;;;6.00;99.90;;;;;;4996021;28;20456;-73
2023/11/17 04:51:20;;;;;;;1999.90;999.90;;;6.00;99.90;;;;;;4996289;28;20174;-72
2023/11/17 04:53:46;;;;;;;1999.90;999.90;;;6.10;99.90;;;;;;4995499;28;20646;-73
2023/11/17 04:56:13;;;;;;;1999.90;999.90;;;6.10;99.90;;;;;;4996000;28;20289;-73
2023/11/17 04:58:39;;;;;;;1999.90;999.90;;;6.10;99.90;;;;;;4995831;28;20169;-72
2023/11/17 05:01:05;;;;;;;1999.90;999.90;;;6.00;99.90;;;;;;4996549;28;20420;-73
2023/11/17 05:03:30;;;;;;;1999.90;999.90;;;6.00;99.90;;;;;;4996782;28;20459;-73
2023/11/17 05:05:56;;;;;;;1999.90;999.90;;;6.00;99.90;;;;;;4996727;28;20217;-73
2023/11/17 05:08:22;;;;;;;1999.90;999.90;;;6.00;99.90;;;;;;4996575;28;20553;-73
2023/11/17 05:10:48;;;;;;;1999.90;999.90;;;5.90;99.90;;;;;;4996596;28;20170;-73
2023/11/17 05:13:14;;;;;;;1999.90;999.90;;;5.90;99.90;;;;;;4996687;28;20415;-73
2023/11/17 05:15:46;;;;;;;1999.90;999.90;;;5.90;99.90;;;;;;4996648;28;20409;-73
2023/11/17 05:18:12;;;;;;;1999.90;999.90;;;5.90;99.90;;;;;;4997207;28;20273;-73
2023/11/17 05:20:38;;;;;;;1999.90;999.90;;;6.00;99.90;;;;;;4996636;28;20467;-73
2023/11/17 05:23:04;;;;;;;1999.90;999.90;;;6.00;99.90;;;;;;4997022;28;20940;-73
2023/11/17 05:25:29;;;;;;;1999.90;999.90;;;7.10;99.90;;;;;;4996245;28;20225;-73
2023/11/17 05:27:55;;;;;;;1999.90;999.90;;;6.00;99.90;;;;;;4996774;28;20414;-73
2023/11/17 05:30:21;;;;;;;1999.90;999.90;;;6.00;99.90;;;;;;4996822;28;20202;-73
2023/11/17 05:32:47;;;;;;;1999.90;999.90;;;6.00;99.90;;;;;;4996288;28;20423;-73
2023/11/17 05:35:13;;;;;;;1999.90;999.90;;;6.00;99.90;;;;;;4996229;28;20572;-73
2023/11/17 05:37:39;;;;;;;1999.90;999.90;;;6.10;99.90;;;;;;4996731;28;20507;-73
2023/11/17 05:40:05;;;;;;;1999.90;999.90;;;6.10;99.90;;;;;;4997205;28;20209;-73
2023/11/17 05:42:31;;;;;;;1999.90;999.90;;;6.10;99.90;;;;;;4996564;28;20258;-73
2023/11/17 05:44:57;;;;;;;1999.90;999.90;;;6.10;99.90;;;;;;4996977;28;20431;-73
2023/11/17 05:47:23;;;;;;;1999.90;999.90;;;6.00;99.90;;;;;;4996868;28;20503;-73
2023/11/17 05:49:48;;;;;;;1999.90;999.90;;;6.00;99.90;;;;;;4996882;28;20260;-73
2023/11/17 05:52:15;;;;;;;1999.90;999.90;;;5.90;99.90;;;;;;4996905;28;20173;-73
2023/11/17 05:54:43;;;;;;;1999.90;999.90;;;5.80;99.90;;;;;;4996687;28;20193;-73
2023/11/17 05:57:16;;;;;;;1999.90;999.90;;;5.80;99.90;;;;;;4996367;28;20416;-73
2023/11/17 05:59:43;;;;;;;1999.90;999.90;;;5.70;99.90;;;;;;4996903;28;20516;-73
2023/11/17 06:02:10;;;;;;;1999.90;999.90;;;5.70;99.90;;;;;;4997458;28;20420;-73
2023/11/17 06:04:37;;;;;;;1999.90;999.90;;;5.80;99.90;;;;;;4998100;28;20437;-73
2023/11/17 06:07:03;;;;;;;1999.90;999.90;;;5.80;99.90;;;;;;4998254;28;20440;-73
2023/11/17 06:09:29;;;;;;;1999.90;999.90;;;5.80;99.90;;;;;;4997727;28;20526;-73
2023/11/17 06:11:56;;;;;;;1999.90;999.90;;;5.80;99.90;;;;;;4997740;28;20488;-73
2023/11/17 06:14:23;;;;;;;1999.90;999.90;;;5.70;99.90;;;;;;4997181;28;20461;-73
2023/11/17 06:16:51;;;;;;;1999.90;999.90;;;5.70;99.90;;;;;;4996557;28;20441;-73
2023/11/17 06:19:17;;;;;;;1999.90;999.90;;;5.80;99.90;;;;;;4996259;28;21020;-73
2023/11/17 06:21:43;;;;;;;1999.90;999.90;;;5.70;99.90;;;;;;4994251;28;20487;-74
2023/11/17 06:24:09;;;;;;;1999.90;999.90;;;5.70;99.90;;;;;;4994018;28;20720;-74
2023/11/17 06:26:35;;;;;;;1999.90;999.90;;;5.80;99.90;;;;;;4994385;28;20413;-74
2023/11/17 06:29:01;;;;;;;1999.90;999.90;;;5.80;99.90;;;;;;4994172;28;20197;-74
2023/11/17 06:31:27;;;;;;;1999.90;999.90;;;5.80;99.90;;;;;;4994195;28;20541;-73
2023/11/17 06:33:53;;;;;;;1999.90;999.90;;;5.70;99.90;;;;;;4993503;28;20437;-73
2023/11/17 06:36:19;;;;;;;1999.90;999.90;;;5.80;99.90;;;;;;4993744;28;20440;-73
2023/11/17 06:38:45;;;;;;;1999.90;999.90;;;5.90;99.90;;;;;;4993846;28;20444;-73
2023/11/17 06:41:11;;;;;;;1999.90;999.90;;;6.00;99.90;;;;;;4993778;28;20981;-74
2023/11/17 06:43:37;;;;;;;1999.90;999.90;;;6.00;99.90;;;;;;4993652;28;20464;-74
2023/11/17 06:46:05;;;;;;;1999.90;999.90;;;6.10;99.90;;;;;;4993786;28;20444;-74
2023/11/17 06:48:32;;;;;;;1999.90;999.90;;;6.10;99.90;;;;;;4993540;28;20173;-74
2023/11/17 06:50:58;;;;;;;1999.90;999.90;;;6.10;99.90;;;;;;4993634;28;20411;-73
2023/11/17 06:53:24;;;;;;;1999.90;999.90;;;6.30;99.90;;;;;;4993484;28;20491;-73
2023/11/17 06:55:50;;;;;;;1999.90;999.90;;;6.30;99.90;;;;;;4993317;28;20205;-74
2023/11/17 06:58:16;;;;;;;1999.90;999.90;;;6.20;99.90;;;;;;4993447;28;20193;-74
2023/11/17 07:00:43;;;;;;;1999.90;999.90;;;6.20;99.90;;;;;;4993927;28;20440;-73
2023/11/17 07:03:08;;;;;;;1999.90;999.90;;;6.20;99.90;;;;;;4994700;28;20208;-73
2023/11/17 07:05:34;;;;;;;1999.90;999.90;;;6.20;99.90;;;;;;4993416;28;20999;-72
2023/11/17 07:08:01;;;;;;;1999.90;999.90;;;6.20;99.90;;;;;;4993697;28;20654;-73
2023/11/17 07:10:29;;;;;;;1999.90;999.90;;;6.10;99.90;;;;;;4993848;28;20467;-72
2023/11/17 07:12:54;;;;;;;1999.90;999.90;;;6.10;99.90;;;;;;4993774;28;20405;-73
2023/11/17 07:15:22;;;;;;;1999.90;999.90;;;6.10;99.90;;;;;;4993679;28;20425;-72
2023/11/17 07:17:47;;;;;;;1999.90;999.90;;;6.10;99.90;;;;;;4994126;28;20181;-72
2023/11/17 07:20:13;;;;;;;1999.90;999.90;;;6.00;99.90;;;;;;4993762;28;20437;-72
2023/11/17 07:22:41;;;;;;;1999.90;999.90;;;6.10;99.90;;;;;;4993831;28;20181;-72
2023/11/17 07:25:10;;;;;;;1999.90;999.90;;;6.20;99.90;;;;;;4993904;28;20228;-73
2023/11/17 07:27:40;;;;;;;1999.90;999.90;;;6.20;99.90;;;;;;4991716;28;20412;-72
2023/11/17 07:30:12;;;;;;;1999.90;999.90;;;6.20;99.90;;;;;;4992712;28;20487;-73
2023/11/17 07:32:39;;;;;;;1999.90;999.90;;;6.30;99.90;;;;;;4992537;28;20901;-73
2023/11/17 07:35:06;;;;;;;1999.90;999.90;;;6.30;99.90;;;;;;5002425;28;20440;-73
2023/11/17 07:37:32;;;;;;;1999.90;999.90;;;6.40;99.90;;;;;;4998438;28;20405;-73
2023/11/17 07:39:57;;;;;;;1999.90;999.90;;;6.40;99.90;;;;;;4992461;28;20409;-73
2023/11/17 07:42:23;;;;;;;1999.90;999.90;;;6.40;99.90;;;;;;4992422;28;20169;-74
2023/11/17 07:44:48;;;;;;;1999.90;999.90;;;6.50;99.90;;;;;;4992166;28;20236;-73
2023/11/17 07:47:14;;;;;;;1999.90;999.90;;;6.50;99.90;;;;;;4992047;28;20178;-73
2023/11/17 07:49:43;;;;;;;1999.90;999.90;;;6.60;99.90;;;;;;4998708;28;20770;-74
2023/11/17 07:52:09;;;;;;;1999.90;999.90;;;6.60;99.90;;;;;;5009967;28;20173;-74
2023/11/17 07:54:35;;;;;;;1999.90;999.90;;;6.70;99.90;;;;;;4998612;28;20424;-74
2023/11/17 07:57:02;;;;;;;1999.90;999.90;;;6.60;99.90;;;;;;4992266;28;20418;-74
2023/11/17 07:59:28;;;;;;;1999.90;999.90;;;6.80;99.90;;;;;;4992181;28;20942;-74
2023/11/17 08:01:55;;;;;;;1999.90;999.90;;;6.90;99.90;;;;;;4992325;28;20412;-74
2023/11/17 08:04:22;;;;;;;1999.90;999.90;;;6.90;99.90;;;;;;4991882;28;20418;-74
2023/11/17 08:06:48;;;;;;;1999.90;999.90;;;6.90;99.90;;;;;;4992303;28;20958;-74
2023/11/17 08:09:16;;;;;;;1999.90;999.90;;;7.10;99.90;;;;;;4992285;28;21030;-74
2023/11/17 08:11:42;;;;;;;1999.90;999.90;;;7.10;99.90;;;;;;4992290;28;20487;-74
2023/11/17 08:14:08;;;;;;;1999.90;999.90;;;7.20;99.90;;;;;;4992013;28;20525;-74
2023/11/17 08:16:34;;;;;;;1999.90;999.90;;;7.20;99.90;;;;;;4992393;28;20164;-74
2023/11/17 08:19:08;;;;;;;1999.90;999.90;;;7.20;99.90;;;;;;4992081;28;20416;-74
2023/11/17 08:21:34;;;;;;;1999.90;999.90;;;7.20;99.90;;;;;;4996367;28;20428;-74
2023/11/17 08:24:00;;;;;;;1999.90;999.90;;;7.40;99.90;;;;;;4995824;28;20459;-74
2023/11/17 08:26:32;;;;;;;1999.90;999.90;;;7.50;99.90;;;;;;4996140;28;20405;-74
2023/11/17 08:28:59;;;;;;;1999.90;999.90;;;7.50;99.90;;;;;;4996037;28;20234;-74
2023/11/17 08:31:25;;;;;;;1999.90;999.90;;;7.10;99.90;;;;;;4996153;28;20448;-74
2023/11/17 08:33:51;;;;;;;1999.90;999.90;;;7.40;99.90;;;;;;4995418;28;20428;-74
2023/11/17 08:36:17;;;;;;;1999.90;999.90;;;7.40;99.90;;;;;;4995951;28;20168;-74
2023/11/17 08:38:43;;;;;;;1999.90;999.90;;;7.40;99.90;;;;;;4995855;28;20930;-74
2023/11/17 08:41:12;;;;;;;1999.90;999.90;;;7.50;99.90;;;;;;4995513;28;20402;-74
2023/11/17 08:43:38;;;;;;;1999.90;999.90;;;7.50;99.90;;;;;;4995968;28;20614;-74
2023/11/17 08:46:07;;;;;;;1999.90;999.90;;;7.60;99.90;;;;;;4995704;28;20408;-74
2023/11/17 08:48:36;;;;;;;1999.90;999.90;;;7.70;99.90;;;;;;4995304;28;20416;-74
2023/11/17 08:51:06;;;;;;;1999.90;999.90;;;7.90;99.90;;;;;;4995641;28;20778;-74
2023/11/17 08:53:32;;;;;;;1999.90;999.90;;;7.80;99.90;;;;;;4995380;28;20429;-74
2023/11/17 08:56:01;;;;;;;1999.90;999.90;;;7.80;99.90;;;;;;4994944;28;20417;-74
2023/11/17 08:58:27;;;;;;;1999.90;999.90;;;7.50;99.90;;;;;;4995541;28;20492;-74
2023/11/17 09:00:53;;;;;;;1999.90;999.90;;;7.70;99.90;;;;;;4995379;28;20402;-74
2023/11/17 09:03:18;;;;;;;1999.90;999.90;;;7.50;99.90;;;;;;4995142;28;20541;-74
2023/11/17 09:05:45;;;;;;;1999.90;999.90;;;7.80;99.90;;;;;;4997563;28;20640;-75
2023/11/17 09:08:11;;;;;;;1999.90;999.90;;;7.50;99.90;;;;;;5025119;28;20424;-73
2023/11/17 09:10:37;;;;;;;1999.90;999.90;;;7.70;99.90;;;;;;5002080;28;20870;-74
2023/11/17 09:13:06;;;;;;;1999.90;999.90;;;7.70;99.90;;;;;;5020898;28;20430;-75
2023/11/17 09:15:35;;;;;;;1999.90;999.90;;;7.70;99.90;;;;;;5005698;28;20444;-75
2023/11/17 09:18:00;;;;;;;1999.90;999.90;;;7.70;99.90;;;;;;5015127;28;20436;-74
2023/11/17 09:20:28;;;;;;;1999.90;999.90;;;7.80;99.90;;;;;;5031071;28;20483;-74
2023/11/17 09:22:54;;;;;;;1999.90;999.90;;;7.90;99.90;;;;;;5020134;28;20659;-74
2023/11/17 09:25:23;;;;;;;1999.90;999.90;;;7.80;99.90;;;;;;5013327;28;20507;-74
2023/11/17 09:27:51;;;;;;;1999.90;999.90;;;7.80;99.90;;;;;;5013027;28;20449;-74
2023/11/17 09:30:16;;;;;;;1999.90;999.90;;;7.90;99.90;;;;;;5012000;28;20481;-74
2023/11/17 09:32:49;;;;;;;1999.90;999.90;;;8.00;99.90;;;;;;5012425;28;20515;-74
2023/11/17 09:35:18;;;;;;;1999.90;999.90;;;8.10;99.90;;;;;;5012894;28;20215;-74
2023/11/17 09:37:45;;;;;;;1999.90;999.90;;;8.00;99.90;;;;;;5012246;28;20477;-74
2023/11/17 09:40:12;;;;;;;1999.90;999.90;;;8.00;99.90;;;;;;5011878;28;20424;-74
2023/11/17 09:42:38;;;;;;;1999.90;999.90;;;8.00;99.90;;;;;;5011614;28;20432;-75
2023/11/17 09:45:08;;;;;;;1999.90;999.90;;;8.00;99.90;;;;;;5004838;28;21290;-75
2023/11/17 09:47:35;;;;;;;1999.90;999.90;;;7.90;99.90;;;;;;4993149;28;20553;-74
2023/11/17 09:50:05;;;;;;;1999.90;999.90;;;7.80;99.90;;;;;;5011808;28;20915;-74
2023/11/17 09:52:32;;;;;;;1999.90;999.90;;;8.20;99.90;;;;;;4993544;28;20927;-74
2023/11/17 09:54:58;;;;;;;1999.90;999.90;;;8.00;99.90;;;;;;4993663;28;20489;-74
2023/11/17 09:57:24;;;;;;;1999.90;999.90;;;7.90;99.90;;;;;;5011233;28;20429;-74
2023/11/17 09:59:51;;;;;;;1999.90;999.90;;;8.10;99.90;;;;;;5012255;28;20178;-74
2023/11/17 10:02:20;;;;;;;1999.90;999.90;;;8.10;99.90;;;;;;5012805;28;20432;-74
2023/11/17 10:04:46;;;;;;;1999.90;999.90;;;8.10;99.90;;;;;;5012073;28;20977;-74
2023/11/17 10:07:14;;;;;;;1999.90;999.90;;;8.20;99.90;;;;;;5011871;28;20432;-74
2023/11/17 10:09:44;;;;;;;1999.90;999.90;;;8.20;99.90;;;;;;5012623;28;20198;-74
2023/11/17 10:12:12;;;;;;;1999.90;999.90;;;8.10;99.90;;;;;;5012229;28;20416;-74
2023/11/17 10:14:41;;;;;;;1999.90;999.90;;;8.20;99.90;;;;;;4993721;28;21025;-74
2023/11/17 10:17:08;;;;;;;1999.90;999.90;;;8.20;99.90;;;;;;5011146;28;20429;-74
2023/11/17 10:19:36;;;;;;;1999.90;999.90;;;8.30;99.90;;;;;;5011785;28;20450;-74
2023/11/17 10:22:04;;;;;;;1999.90;999.90;;;8.90;99.90;;;;;;5011586;28;21040;-74
2023/11/17 10:24:31;;;;;;;1999.90;999.90;;;8.30;99.90;;;;;;5004051;28;20443;-74
2023/11/17 10:26:57;;;;;;;1999.90;999.90;;;8.30;99.90;;;;;;5008892;28;20428;-75
2023/11/17 10:29:24;;;;;;;1999.90;999.90;;;8.60;99.90;;;;;;5009543;28;20589;-74
2023/11/17 10:31:56;;;;;;;1999.90;999.90;;;8.60;99.90;;;;;;5003394;28;20416;-74
2023/11/17 10:34:22;;;;;;;1999.90;999.90;;;8.70;99.90;;;;;;5011695;28;20919;-73
2023/11/17 10:36:57;;;;;;;1999.90;999.90;;;8.40;99.90;;;;;;5017375;28;20429;-74
2023/11/17 10:39:24;;;;;;;1999.90;999.90;;;8.40;99.90;;;;;;5014536;28;20428;-77
2023/11/17 10:41:51;;;;;;;1999.90;999.90;;;8.70;99.90;;;;;;5016352;28;20706;-74
2023/11/17 10:44:31;;;;;;;1999.90;999.90;;;8.80;99.90;;;;;;5018180;28;20819;-73
2023/11/17 10:46:57;;;;;;;1999.90;999.90;;;8.80;99.90;;;;;;4992645;28;20475;-73
2023/11/17 10:49:22;;;;;;;1999.90;999.90;;;8.50;99.90;;;;;;5008835;28;20470;-73
2023/11/17 10:51:50;;;;;;;1999.90;999.90;;;8.40;99.90;;;;;;5011319;28;20214;-72
2023/11/17 10:54:16;;;;;;;1999.90;999.90;;;8.60;99.90;;;;;;5012284;28;20236;-73
2023/11/17 10:56:50;;;;;;;1999.90;999.90;;;8.50;99.90;;;;;;5016668;28;20639;-73
2023/11/17 10:59:18;;;;;;;1999.90;999.90;;;8.80;99.90;;;;;;5018605;28;20421;-74
2023/11/17 11:01:45;;;;;;;1999.90;999.90;;;8.50;99.90;;;;;;5018938;28;20976;-74
2023/11/17 11:04:25;;;;;;;1999.90;999.90;;;8.50;99.90;;;;;;4994693;28;20477;-74
2023/11/17 11:06:58;;;;;;;1999.90;999.90;;;8.60;99.90;;;;;;4991788;28;20426;-74
2023/11/17 11:09:50;;;;;;;1999.90;999.90;;;8.40;99.90;;;;;;4991779;28;20462;-73
2023/11/17 11:12:15;;;;;;;1999.90;999.90;;;9.20;99.90;;;;;;5001200;28;20794;-73
2023/11/17 11:14:42;;;;;;;1999.90;999.90;;;8.50;99.90;;;;;;5008403;28;20440;-72
2023/11/17 11:17:11;;;;;;;1999.90;999.90;;;8.50;99.90;;;;;;5007676;28;20174;-72
2023/11/17 11:19:38;;;;;;;1999.90;999.90;;;8.90;99.90;;;;;;5006185;28;20471;-72
2023/11/17 11:22:07;;;;;;;1999.90;999.90;;;9.50;99.90;;;;;;5020942;28;20418;-72
2023/11/17 11:24:34;;;;;;;1999.90;999.90;;;8.60;99.90;;;;;;5008184;28;20442;-76
2023/11/17 11:27:05;;;;;;;1999.90;999.90;;;8.70;99.90;;;;;;5001498;28;20414;-75
2023/11/17 11:29:31;;;;;;;1999.90;999.90;;;8.70;99.90;;;;;;4989091;28;20490;-76
2023/11/17 11:31:57;;;;;;;1999.90;999.90;;;8.70;99.90;;;;;;5021116;28;20444;-74
2023/11/17 11:34:25;;;;;;;1999.90;999.90;;;8.70;99.90;;;;;;5031271;28;20496;-74
2023/11/17 11:36:51;;;;;;;1999.90;999.90;;;8.60;99.90;;;;;;5021639;28;20466;-74
2023/11/17 11:39:17;;;;;;;1999.90;999.90;;;8.60;99.90;;;;;;5019302;28;20408;-74
2023/11/17 11:41:45;;;;;;;1999.90;999.90;;;8.60;99.90;;;;;;5014507;28;20443;-74
2023/11/17 11:44:11;;;;;;;1999.90;999.90;;;8.70;99.90;;;;;;5016681;28;20576;-74
2023/11/17 11:46:37;;;;;;;1999.90;999.90;;;8.80;99.90;;;;;;5013236;28;20425;-74
2023/11/17 11:49:06;;;;;;;1999.90;999.90;;;8.90;99.90;;;;;;5013805;28;20273;-74
2023/11/17 11:51:44;;;;;;;1999.90;999.90;;;8.60;99.90;;;;;;5021032;28;20432;-74
2023/11/17 11:54:11;;;;;;;1999.90;999.90;;;8.60;99.90;;;;;;5013058;28;20926;-75
2023/11/17 11:56:40;;;;;;;1999.90;999.90;;;8.60;99.90;;;;;;5009530;28;20498;-74
2023/11/17 11:59:06;;;;;;;1999.90;999.90;;;8.60;99.90;;;;;;5009405;28;20438;-74
2023/11/17 12:01:34;;;;;;;1999.90;999.90;;;8.70;99.90;;;;;;5012543;28;20824;-74
2023/11/17 12:04:05;;;;;;;1999.90;999.90;;;8.80;99.90;;;;;;5012525;28;20195;-74
2023/11/17 12:06:32;;;;;;;1999.90;999.90;;;8.70;99.90;;;;;;5012500;28;20485;-74
2023/11/17 12:09:08;;;;;;;1999.90;999.90;;;8.60;99.90;;;;;;5020400;28;20462;-74